Time;durP1;ratioP1;P1;durP2;ratioP2;P2;SDS_P1;SDS_P2;PMS_P1;PMS_P2;Temp;Humidity;BMP_temperature;BMP_pressure;BME280_temperature;BME280_humidity;BME280_pressure;Samples;Min_cycle;Max_cycle;Signal;HPM_P1;HPM_P2
2022/04/03 00:02:10;;;;;;;3.83;2.70;;;;;;;18.40;51.72;100492.38;5032005;28;20686;-61
2022/04/03 00:04:36;;;;;;;5.67;2.77;;;;;;;18.42;51.65;100495.69;5014320;28;20200;-61
2022/04/03 00:07:02;;;;;;;4.93;2.43;;;;;;;18.47;51.40;100498.25;5031812;28;20489;-61
2022/04/03 00:09:27;;;;;;;4.70;2.60;;;;;;;18.41;52.14;100496.91;5031762;28;20183;-61
2022/04/03 00:11:52;;;;;;;3.90;2.20;;;;;;;18.36;51.86;100494.34;5031902;28;20426;-61
2022/04/03 00:14:21;;;;;;;4.10;2.50;;;;;;;18.37;52.02;100501.72;5031869;28;20185;-61
2022/04/03 00:16:46;;;;;;;3.33;2.50;;;;;;;18.41;51.65;100499.75;5031544;28;20211;-61
2022/04/03 00:19:12;;;;;;;3.80;2.47;;;;;;;18.38;51.93;100494.81;5031689;28;20411;-61
2022/04/03 00:21:37;;;;;;;5.47;2.70;;;;;;;18.36;51.86;100500.06;5031945;28;20192;-61
2022/04/03 00:24:03;;;;;;;5.20;2.80;;;;;;;18.37;51.73;100498.03;5013592;28;20271;-61
2022/04/03 00:26:29;;;;;;;4.23;2.50;;;;;;;18.35;51.98;100504.13;5031702;28;20238;-61
2022/04/03 00:28:54;;;;;;;4.13;2.80;;;;;;;18.35;51.52;100498.41;5030896;28;20593;-61
2022/04/03 00:31:20;;;;;;;4.60;2.40;;;;;;;18.29;52.73;100497.03;5031320;28;20176;-61
2022/04/03 00:33:45;;;;;;;3.80;2.57;;;;;;;18.27;52.12;100495.75;5031518;28;20168;-61
2022/04/03 00:36:11;;;;;;;5.20;2.50;;;;;;;18.30;52.10;100500.69;5031385;28;20176;-61
2022/04/03 00:38:36;;;;;;;4.30;2.20;;;;;;;18.29;51.90;100505.59;5031673;28;20573;-61
2022/04/03 00:41:02;;;;;;;3.80;2.60;;;;;;;18.31;51.79;100506.03;5031623;28;20169;-61
2022/04/03 00:43:27;;;;;;;6.00;3.30;;;;;;;18.30;52.08;100507.25;5031135;28;20200;-61
2022/04/03 00:45:53;;;;;;;6.23;2.67;;;;;;;18.27;52.23;100510.84;5013330;28;20199;-61
2022/04/03 00:48:19;;;;;;;4.80;2.70;;;;;;;18.32;51.80;100509.72;5013772;28;20297;-61
2022/04/03 00:50:44;;;;;;;5.63;2.80;;;;;;;18.31;51.93;100505.22;5030840;28;20204;-61
2022/04/03 00:53:10;;;;;;;4.57;2.97;;;;;;;18.37;51.60;100501.72;5030806;28;20693;-61
2022/04/03 00:55:35;;;;;;;3.80;2.33;;;;;;;18.35;51.78;100498.41;5031106;28;20168;-61
2022/04/03 00:58:04;;;;;;;4.40;2.80;;;;;;;18.35;51.80;100509.84;5031551;28;20183;-61
2022/04/03 01:00:29;;;;;;;4.20;2.43;;;;;;;18.39;52.01;100505.03;5029931;28;20843;-61
2022/04/03 01:02:55;;;;;;;3.23;1.90;;;;;;;18.35;51.81;100509.84;5029560;28;20430;-61
2022/04/03 01:05:21;;;;;;;3.67;2.60;;;;;;;18.37;51.63;100516.00;5031057;28;20172;-61
2022/04/03 01:07:46;;;;;;;4.23;2.43;;;;;;;18.39;51.70;100513.59;5031585;28;20203;-61
2022/04/03 01:10:12;;;;;;;4.83;2.80;;;;;;;18.38;51.81;100511.97;5030767;28;20423;-61
2022/04/03 01:12:41;;;;;;;4.57;3.00;;;;;;;18.39;51.87;100518.50;5031054;28;20246;-61
2022/04/03 01:15:07;;;;;;;4.13;2.20;;;;;;;18.40;52.28;100509.53;5031313;28;20179;-61
2022/04/03 01:17:32;;;;;;;3.13;2.10;;;;;;;18.38;51.85;100513.97;5031434;28;20415;-61
2022/04/03 01:19:58;;;;;;;3.67;2.30;;;;;;;18.31;51.96;100513.81;4997128;28;20809;-61
2022/04/03 01:22:23;;;;;;;4.47;2.40;;;;;;;18.37;52.14;100512.31;5030841;28;20175;-61
2022/04/03 01:24:55;;;;;;;3.40;2.20;;;;;;;18.34;52.08;100513.91;5030791;28;20303;-61
2022/04/03 01:27:21;;;;;;;4.33;2.40;;;;;;;18.35;51.50;100509.84;5031260;28;20199;-61
2022/04/03 01:29:48;;;;;;;5.77;2.50;;;;;;;18.28;52.25;100511.69;5030570;28;20423;-61
2022/04/03 01:32:13;;;;;;;3.70;2.00;;;;;;;18.28;51.89;100509.66;5031093;28;20419;-61
2022/04/03 01:34:39;;;;;;;4.10;2.60;;;;;;;18.31;51.84;100514.59;5029510;28;20446;-61
2022/04/03 01:37:04;;;;;;;4.00;2.63;;;;;;;18.30;51.78;100512.13;5031259;28;20183;-61
2022/04/03 01:39:30;;;;;;;2.93;2.40;;;;;;;18.30;52.08;100518.69;5031195;28;20181;-61
2022/04/03 01:41:56;;;;;;;3.20;2.10;;;;;;;18.27;51.86;100519.41;5030870;28;20184;-61
2022/04/03 01:44:21;;;;;;;3.10;2.20;;;;;;;18.24;52.24;100505.88;5030492;28;20274;-61
2022/04/03 01:46:47;;;;;;;5.00;2.30;;;;;;;18.26;52.58;100514.91;5031146;28;20192;-61
2022/04/03 01:49:12;;;;;;;3.60;2.23;;;;;;;18.24;52.22;100507.91;5031891;28;20616;-61
2022/04/03 01:51:38;;;;;;;3.70;2.27;;;;;;;18.22;51.98;100510.31;5034645;28;20169;-61
2022/04/03 01:54:04;;;;;;;3.00;1.93;;;;;;;18.29;52.11;100507.63;5033406;28;20165;-61
2022/04/03 01:56:30;;;;;;;5.63;2.60;;;;;;;18.28;52.05;100505.97;5034697;28;20184;-61
2022/04/03 01:58:56;;;;;;;3.50;2.37;;;;;;;18.27;52.39;100501.47;5034502;28;20403;-61
2022/04/03 02:01:21;;;;;;;3.83;2.27;;;;;;;18.24;51.93;100508.75;5033853;28;20760;-61
2022/04/03 02:03:46;;;;;;;6.03;2.10;;;;;;;18.26;52.10;100512.03;5033588;28;20200;-61
2022/04/03 02:06:13;;;;;;;3.20;2.27;;;;;;;18.27;52.56;100510.03;5034333;28;20226;-61
2022/04/03 02:08:39;;;;;;;3.13;2.33;;;;;;;18.29;51.79;100510.47;5034460;28;20422;-61
2022/04/03 02:11:04;;;;;;;3.33;2.30;;;;;;;18.34;51.72;100507.34;5033944;28;20481;-61
2022/04/03 02:13:30;;;;;;;4.13;2.07;;;;;;;18.26;52.22;100512.03;5034261;28;20631;-61
2022/04/03 02:15:55;;;;;;;4.70;2.83;;;;;;;18.31;51.83;100508.09;5034221;28;20690;-61
2022/04/03 02:18:20;;;;;;;3.20;2.13;;;;;;;18.35;51.91;100520.44;5034251;28;20172;-61
2022/04/03 02:20:46;;;;;;;3.27;1.93;;;;;;;18.33;51.87;100512.25;5033727;28;20306;-61
2022/04/03 02:23:12;;;;;;;4.93;2.57;;;;;;;18.30;52.03;100518.69;5034253;28;20268;-61
2022/04/03 02:25:38;;;;;;;3.17;2.20;;;;;;;18.28;51.83;100509.66;5033495;28;20713;-60
2022/04/03 02:28:04;;;;;;;3.50;2.53;;;;;;;18.31;52.32;100516.66;5034119;28;20427;-61
2022/04/03 02:30:30;;;;;;;3.80;2.27;;;;;;;18.35;52.35;100518.41;5033598;28;20175;-61
2022/04/03 02:32:55;;;;;;;3.23;1.90;;;;;;;18.32;51.93;100516.28;5016459;28;20165;-61
2022/04/03 02:35:20;;;;;;;3.63;2.07;;;;;;;18.23;51.96;100514.84;5033856;28;20655;-61
2022/04/03 02:37:46;;;;;;;3.37;2.20;;;;;;;18.26;52.11;100517.75;5033826;28;20178;-61
2022/04/03 02:40:13;;;;;;;3.00;1.80;;;;;;;18.32;51.99;100516.28;5032358;28;20215;-61
2022/04/03 02:42:39;;;;;;;3.10;1.80;;;;;;;18.30;52.19;100515.81;5032980;28;20636;-61
2022/04/03 02:45:05;;;;;;;4.70;2.00;;;;;;;18.26;51.73;100526.34;5033665;28;20490;-61
2022/04/03 02:47:31;;;;;;;3.27;1.77;;;;;;;18.24;51.99;100514.47;5033651;28;20224;-61
2022/04/03 02:49:57;;;;;;;2.57;1.97;;;;;;;18.24;52.09;100517.31;5015910;28;20588;-61
2022/04/03 02:52:22;;;;;;;2.57;1.67;;;;;;;18.26;52.05;100522.66;5032679;28;20416;-61
2022/04/03 02:54:48;;;;;;;2.33;1.80;;;;;;;18.24;52.16;100517.31;5033534;28;20169;-61
2022/04/03 02:57:16;;;;;;;2.90;2.13;;;;;;;18.21;51.82;100523.78;5033284;28;20173;-61
2022/04/03 02:59:42;;;;;;;3.40;1.90;;;;;;;18.23;51.94;100523.41;5015350;28;20223;-61
2022/04/03 03:02:07;;;;;;;2.80;1.87;;;;;;;18.22;52.12;100518.91;5033419;28;20423;-61
2022/04/03 03:04:35;;;;;;;2.70;1.90;;;;;;;18.23;51.97;100520.53;5033175;28;20250;-61
2022/04/03 03:07:01;;;;;;;3.10;2.07;;;;;;;18.21;52.12;100525.81;5033528;28;20180;-61
2022/04/03 03:09:27;;;;;;;3.03;2.10;;;;;;;18.21;51.88;100520.91;5032784;28;20419;-61
2022/04/03 03:11:52;;;;;;;3.77;1.83;;;;;;;18.22;51.76;100516.03;5032934;28;20419;-60
2022/04/03 03:14:18;;;;;;;2.57;1.80;;;;;;;18.22;52.02;100522.56;5033116;28;20169;-61
2022/04/03 03:16:44;;;;;;;3.10;2.00;;;;;;;18.20;52.01;100519.25;5033183;28;20172;-61
2022/04/03 03:19:09;;;;;;;3.50;2.03;;;;;;;18.20;51.85;100521.28;5014966;28;20411;-61
2022/04/03 03:21:35;;;;;;;3.27;2.20;;;;;;;18.18;52.21;100518.81;5033416;28;20164;-61
2022/04/03 03:24:01;;;;;;;3.67;2.00;;;;;;;18.22;51.92;100524.63;5015199;28;20632;-61
2022/04/03 03:26:27;;;;;;;2.67;1.80;;;;;;;18.23;51.83;100518.53;5032801;28;20973;-61
2022/04/03 03:28:52;;;;;;;2.73;1.97;;;;;;;18.21;52.13;100520.91;5032932;28;20423;-61
2022/04/03 03:31:18;;;;;;;2.60;1.73;;;;;;;18.23;51.78;100524.25;5032727;28;20180;-61
2022/04/03 03:33:43;;;;;;;2.77;1.80;;;;;;;18.32;51.77;100533.44;5032952;28;20168;-61
2022/04/03 03:36:09;;;;;;;4.03;2.43;;;;;;;18.30;51.68;100529.28;5028558;28;20319;-61
2022/04/03 03:38:35;;;;;;;3.40;2.07;;;;;;;18.27;51.99;100530.03;5021575;28;20193;-61
2022/04/03 03:41:01;;;;;;;2.30;1.87;;;;;;;18.32;51.65;100532.59;5012593;28;20444;-61
2022/04/03 03:43:26;;;;;;;2.43;1.57;;;;;;;18.26;51.67;100529.19;5024110;28;20200;-61
2022/04/03 03:45:52;;;;;;;2.67;1.80;;;;;;;18.23;51.99;100524.25;5032044;28;20188;-60
2022/04/03 03:48:17;;;;;;;2.83;1.93;;;;;;;18.22;52.09;100536.84;5032282;28;20235;-61
2022/04/03 03:50:42;;;;;;;2.70;2.10;;;;;;;18.21;51.86;100531.53;5032480;28;20168;-61
2022/04/03 03:53:08;;;;;;;2.97;2.17;;;;;;;18.20;52.20;100536.41;5031834;28;20175;-61
2022/04/03 03:55:33;;;;;;;2.90;1.77;;;;;;;18.27;51.69;100535.75;5031654;28;20553;-61
2022/04/03 03:57:59;;;;;;;2.77;1.70;;;;;;;18.27;52.22;100535.75;5032244;28;20659;-61
2022/04/03 04:00:25;;;;;;;2.70;1.80;;;;;;;18.26;51.74;100537.75;5014367;28;20188;-61
2022/04/03 04:02:50;;;;;;;2.60;1.97;;;;;;;18.27;52.01;100544.31;5032221;28;20204;-61
2022/04/03 04:05:16;;;;;;;2.73;1.80;;;;;;;18.22;51.67;100542.56;5031925;28;20466;-61
2022/04/03 04:07:42;;;;;;;5.20;1.80;;;;;;;18.22;52.34;100542.56;5030410;28;20180;-60
2022/04/03 04:10:08;;;;;;;3.83;1.90;;;;;;;18.24;51.67;100539.34;5031173;28;20183;-60
2022/04/03 04:12:35;;;;;;;3.00;2.00;;;;;;;18.24;51.68;100540.19;5031665;28;20411;-60
2022/04/03 04:15:00;;;;;;;2.80;1.70;;;;;;;18.22;51.80;100539.72;5031783;28;20426;-60
2022/04/03 04:17:26;;;;;;;3.03;1.50;;;;;;;18.26;51.81;100540.63;5031435;28;20419;-60
2022/04/03 04:19:51;;;;;;;2.33;1.87;;;;;;;18.26;51.83;100551.25;5032062;28;20176;-60
2022/04/03 04:22:17;;;;;;;2.83;1.50;;;;;;;18.24;51.90;100550.78;5031989;28;20204;-60
2022/04/03 04:24:42;;;;;;;2.67;1.60;;;;;;;18.22;51.82;100544.63;5031617;28;20191;-60
2022/04/03 04:27:08;;;;;;;2.60;1.90;;;;;;;18.22;51.61;100550.31;5031740;28;20173;-60
2022/04/03 04:29:33;;;;;;;2.53;1.87;;;;;;;18.18;51.94;100550.25;5031917;28;20222;-60
2022/04/03 04:31:59;;;;;;;2.70;2.00;;;;;;;18.20;51.83;100552.72;5031614;28;20215;-60
2022/04/03 04:34:24;;;;;;;3.50;1.90;;;;;;;18.22;51.86;100556.84;5031556;28;20180;-61
2022/04/03 04:36:50;;;;;;;2.50;1.80;;;;;;;18.20;51.84;100559.28;5031672;28;20175;-61
2022/04/03 04:39:15;;;;;;;2.80;1.83;;;;;;;18.16;51.87;100555.50;5031163;28;20662;-61
2022/04/03 04:41:40;;;;;;;3.40;2.17;;;;;;;18.19;52.09;100563.34;5031172;28;20222;-61
2022/04/03 04:44:06;;;;;;;2.70;1.57;;;;;;;18.17;51.97;100560.00;5031294;28;20191;-61
2022/04/03 04:46:31;;;;;;;2.83;1.40;;;;;;;18.19;51.87;100566.19;5031687;28;20192;-61
2022/04/03 04:48:57;;;;;;;2.90;2.00;;;;;;;18.18;51.81;100567.41;5031341;28;20687;-61
2022/04/03 04:51:22;;;;;;;3.30;1.70;;;;;;;18.20;51.89;100569.84;5031577;28;20658;-61
2022/04/03 04:53:48;;;;;;;3.70;2.03;;;;;;;18.19;51.77;100571.91;5030676;28;20176;-61
2022/04/03 04:56:13;;;;;;;2.57;1.87;;;;;;;18.16;51.84;100575.50;5031012;28;20230;-61
2022/04/03 04:58:39;;;;;;;2.90;1.90;;;;;;;18.18;51.88;100575.97;5031562;28;20172;-61
2022/04/03 05:01:05;;;;;;;2.70;1.70;;;;;;;18.20;52.00;100578.44;5025823;28;20539;-61
2022/04/03 05:03:30;;;;;;;3.07;2.03;;;;;;;18.25;51.69;100575.28;5031624;28;20219;-61
2022/04/03 05:05:55;;;;;;;2.80;1.93;;;;;;;18.23;51.74;100580.56;5031347;28;20168;-61
2022/04/03 05:08:21;;;;;;;2.43;1.77;;;;;;;18.27;51.54;100581.47;5031289;28;20176;-60
2022/04/03 05:10:46;;;;;;;2.70;1.90;;;;;;;18.22;51.65;100581.75;5030924;28;20184;-60
2022/04/03 05:13:12;;;;;;;3.30;1.73;;;;;;;18.18;51.96;100589.41;5031342;28;20539;-61
2022/04/03 05:15:37;;;;;;;2.70;1.70;;;;;;;18.23;51.56;100595.69;5030657;28;20195;-61
2022/04/03 05:18:03;;;;;;;2.43;1.50;;;;;;;18.22;51.57;100593.19;5030857;28;20168;-61
2022/04/03 05:20:28;;;;;;;2.27;1.50;;;;;;;18.21;51.75;100598.06;5031242;28;20161;-61
2022/04/03 05:22:54;;;;;;;2.57;1.83;;;;;;;18.21;51.85;100595.22;5031286;28;20515;-61
2022/04/03 05:25:19;;;;;;;2.57;1.60;;;;;;;18.17;51.88;100597.16;5033351;28;20204;-61
2022/04/03 05:27:45;;;;;;;2.83;1.67;;;;;;;18.22;51.66;100591.16;5035237;28;20184;-61
2022/04/03 05:30:11;;;;;;;2.47;1.60;;;;;;;18.27;51.75;100598.63;5035146;28;20175;-61
2022/04/03 05:32:37;;;;;;;2.40;1.47;;;;;;;18.21;51.87;100603.78;5035099;28;20214;-61
2022/04/03 05:35:03;;;;;;;2.37;1.63;;;;;;;18.25;51.55;100601.00;5035059;28;20407;-61
2022/04/03 05:37:29;;;;;;;3.10;1.67;;;;;;;18.24;51.68;100607.94;5034777;28;20200;-61
2022/04/03 05:39:54;;;;;;;3.07;1.90;;;;;;;18.23;51.71;100607.13;5034593;28;20422;-61
2022/04/03 05:42:20;;;;;;;3.47;1.93;;;;;;;18.24;51.52;100607.94;5034979;28;20745;-61
2022/04/03 05:44:46;;;;;;;3.07;1.60;;;;;;;18.22;51.72;100611.16;5034745;28;20648;-61
2022/04/03 05:47:11;;;;;;;3.00;1.70;;;;;;;18.20;51.86;100607.84;5034748;28;20235;-61
2022/04/03 05:49:37;;;;;;;2.90;1.90;;;;;;;18.20;51.69;100610.72;5034586;28;20604;-61
2022/04/03 05:52:03;;;;;;;2.30;1.53;;;;;;;18.19;51.93;100611.91;5034303;28;20542;-61
2022/04/03 05:54:29;;;;;;;2.03;1.23;;;;;;;18.22;51.69;100619.72;5033617;28;20189;-61
2022/04/03 05:56:55;;;;;;;2.70;1.73;;;;;;;18.22;51.88;100618.91;5034154;28;20454;-61
2022/04/03 05:59:20;;;;;;;2.30;1.50;;;;;;;18.19;51.70;100620.47;5034355;28;20223;-61
2022/04/03 06:01:47;;;;;;;3.17;1.73;;;;;;;18.18;52.08;100629.44;5034515;28;20450;-61
2022/04/03 06:04:12;;;;;;;2.07;1.50;;;;;;;18.20;51.96;100630.72;5034204;28;20679;-61
2022/04/03 06:06:38;;;;;;;2.53;1.90;;;;;;;18.23;51.78;100635.69;5033269;28;20423;-61
2022/04/03 06:09:04;;;;;;;3.93;1.90;;;;;;;18.19;51.70;100636.78;5034037;28;20180;-61
2022/04/03 06:11:30;;;;;;;2.40;1.77;;;;;;;18.19;51.74;100640.50;5034445;28;20422;-60
2022/04/03 06:13:56;;;;;;;2.70;1.70;;;;;;;18.24;51.55;100640.22;5034026;28;20169;-61
2022/04/03 06:16:21;;;;;;;3.07;1.70;;;;;;;18.20;51.67;100649.88;5034025;28;20415;-61
2022/04/03 06:18:46;;;;;;;2.30;1.70;;;;;;;18.22;51.60;100645.44;5033811;28;20211;-61
2022/04/03 06:21:12;;;;;;;2.40;1.70;;;;;;;18.21;51.55;100646.66;5034198;28;20654;-61
2022/04/03 06:23:37;;;;;;;2.47;1.60;;;;;;;18.21;51.58;100654.41;5034052;28;20706;-61
2022/04/03 06:26:03;;;;;;;2.00;1.40;;;;;;;18.22;51.66;100651.16;5033926;28;20248;-61
2022/04/03 06:28:28;;;;;;;2.37;1.70;;;;;;;18.22;51.55;100659.72;5034121;28;20183;-61
2022/04/03 06:30:55;;;;;;;2.33;1.67;;;;;;;18.23;51.80;100655.69;5033864;28;20222;-61
2022/04/03 06:33:21;;;;;;;3.17;1.40;;;;;;;18.24;51.49;100662.22;5016421;28;20519;-61
2022/04/03 06:35:46;;;;;;;2.60;1.60;;;;;;;18.22;51.38;100659.72;5033262;28;20434;-61
2022/04/03 06:38:13;;;;;;;2.60;1.60;;;;;;;18.26;51.53;100662.72;5033366;28;20180;-61
2022/04/03 06:40:41;;;;;;;2.40;1.30;;;;;;;18.24;51.17;100662.22;5033397;28;20168;-61
2022/04/03 06:43:07;;;;;;;2.47;1.77;;;;;;;18.21;51.66;100666.66;5033696;28;20553;-61
2022/04/03 06:45:32;;;;;;;2.20;1.40;;;;;;;18.22;51.46;100667.50;5033626;28;20454;-61
2022/04/03 06:47:58;;;;;;;2.10;1.50;;;;;;;18.26;51.26;100671.28;5033518;28;20232;-61
2022/04/03 06:50:24;;;;;;;2.40;1.73;;;;;;;18.18;51.39;100675.16;4999391;28;20267;-61
2022/04/03 06:52:49;;;;;;;2.67;1.27;;;;;;;18.21;51.55;100669.50;5032972;28;20876;-61
2022/04/03 06:55:15;;;;;;;2.47;1.73;;;;;;;18.19;51.69;100674.78;5033337;28;20169;-61
2022/04/03 06:57:41;;;;;;;2.83;1.77;;;;;;;18.20;51.80;100678.44;5033735;28;20169;-61
2022/04/03 07:00:07;;;;;;;2.23;1.37;;;;;;;18.18;51.54;100675.16;5032856;28;20180;-61
2022/04/03 07:02:33;;;;;;;2.40;1.70;;;;;;;18.20;51.69;100681.31;5033216;28;20537;-61
2022/04/03 07:04:58;;;;;;;2.30;1.50;;;;;;;18.18;51.71;100689.44;5033066;28;20526;-61
2022/04/03 07:07:24;;;;;;;2.20;1.53;;;;;;;18.22;51.49;100684.66;5033429;28;20458;-61
2022/04/03 07:09:50;;;;;;;2.20;1.23;;;;;;;18.19;51.80;100694.78;5033250;28;20184;-61
2022/04/03 07:12:15;;;;;;;2.30;1.50;;;;;;;18.22;51.45;100698.94;5033351;28;20176;-61
2022/04/03 07:14:41;;;;;;;2.53;1.70;;;;;;;18.18;51.80;100698.00;5032488;28;20179;-61
2022/04/03 07:17:06;;;;;;;2.20;1.50;;;;;;;18.20;51.43;100690.72;5033198;28;20177;-61
2022/04/03 07:19:32;;;;;;;2.10;1.37;;;;;;;18.20;51.29;100699.28;5033080;28;20173;-61
2022/04/03 07:21:58;;;;;;;2.67;1.70;;;;;;;18.23;51.18;100707.16;5033127;28;20215;-61
2022/04/03 07:24:24;;;;;;;2.10;1.50;;;;;;;18.21;51.77;100714.44;5032627;28;20447;-61
2022/04/03 07:26:49;;;;;;;2.30;1.40;;;;;;;18.21;51.52;100712.38;5033080;28;20184;-61
2022/04/03 07:29:15;;;;;;;2.43;1.57;;;;;;;18.20;51.66;100716.44;5032762;28;20422;-61
2022/04/03 07:31:41;;;;;;;2.53;1.50;;;;;;;18.23;51.60;100715.72;5032735;28;20190;-61
2022/04/03 07:34:06;;;;;;;2.33;1.57;;;;;;;18.20;51.42;100716.44;5031337;28;20434;-61
2022/04/03 07:36:32;;;;;;;2.77;1.83;;;;;;;18.24;51.59;100713.66;5032980;28;20235;-61
2022/04/03 07:38:57;;;;;;;2.63;1.60;;;;;;;18.22;51.79;100719.75;5031715;28;20184;-61
2022/04/03 07:41:23;;;;;;;3.20;1.50;;;;;;;18.20;51.50;100722.16;5031719;28;20192;-61
2022/04/03 07:43:48;;;;;;;2.10;1.30;;;;;;;18.21;51.16;100717.28;5032029;28;20184;-61
2022/04/03 07:46:16;;;;;;;2.27;1.63;;;;;;;18.20;51.62;100729.88;5032114;28;20664;-61
2022/04/03 07:48:42;;;;;;;2.17;1.33;;;;;;;18.17;51.64;100725.75;5031626;28;20314;-60
2022/04/03 07:51:08;;;;;;;1.90;1.30;;;;;;;18.22;51.57;100728.31;5032145;28;21189;-61
2022/04/03 07:53:33;;;;;;;1.93;1.20;;;;;;;18.19;51.62;100728.25;5031823;28;20422;-60
2022/04/03 07:55:58;;;;;;;2.20;1.67;;;;;;;18.15;51.68;100739.56;5032229;28;20207;-60
2022/04/03 07:58:24;;;;;;;2.50;1.50;;;;;;;18.18;51.52;100738.84;5032371;28;20553;-60
2022/04/03 08:00:49;;;;;;;2.23;1.50;;;;;;;18.17;51.37;100734.31;5031827;28;20184;-60
2022/04/03 08:03:15;;;;;;;5.77;1.40;;;;;;;18.16;51.64;100735.53;5031977;28;20173;-60
2022/04/03 08:05:40;;;;;;;2.10;1.40;;;;;;;18.17;51.61;100736.34;5031980;28;20203;-60
2022/04/03 08:08:06;;;;;;;3.10;1.70;;;;;;;18.17;51.23;100737.16;5032293;28;20181;-60
2022/04/03 08:10:32;;;;;;;2.40;1.60;;;;;;;18.16;51.67;100729.00;5031934;28;20533;-61
2022/04/03 08:12:57;;;;;;;2.37;1.63;;;;;;;18.12;51.87;100746.00;5032094;28;20164;-61
2022/04/03 08:15:22;;;;;;;2.37;1.43;;;;;;;18.18;51.54;100733.13;5031837;28;20203;-61
2022/04/03 08:17:48;;;;;;;2.30;1.40;;;;;;;18.19;51.33;100751.94;5032013;28;20544;-61
2022/04/03 08:20:16;;;;;;;2.87;1.70;;;;;;;18.23;51.43;100750.00;5031233;28;20180;-61
2022/04/03 08:22:42;;;;;;;2.60;1.60;;;;;;;18.19;51.18;100751.09;5030916;28;20192;-60
2022/04/03 08:25:07;;;;;;;2.20;1.50;;;;;;;18.14;51.62;100757.94;5030603;28;20473;-60
2022/04/03 08:27:45;;;;;;;2.57;1.70;;;;;;;18.19;51.34;100756.81;5031778;28;20260;-60
2022/04/03 08:30:13;;;;;;;2.80;1.33;;;;;;;18.20;51.48;100764.19;5031528;28;20265;-60
2022/04/03 08:32:38;;;;;;;2.57;1.67;;;;;;;18.17;51.71;100759.22;5030126;28;20427;-60
2022/04/03 08:35:04;;;;;;;2.73;1.60;;;;;;;18.22;51.25;100759.75;5031412;28;20464;-60
2022/04/03 08:37:30;;;;;;;2.00;1.30;;;;;;;18.21;51.86;100768.72;5031817;28;20600;-60
2022/04/03 08:39:55;;;;;;;2.00;1.33;;;;;;;18.19;51.57;100769.09;5031634;28;20189;-60
2022/04/03 08:42:21;;;;;;;4.20;1.60;;;;;;;18.19;51.46;100771.09;5031101;28;20195;-60
2022/04/03 08:44:46;;;;;;;3.07;1.67;;;;;;;18.17;52.03;100777.19;5029852;28;20299;-60
2022/04/03 08:47:12;;;;;;;2.03;1.47;;;;;;;18.19;51.37;100771.94;5030726;28;20227;-60
2022/04/03 08:49:38;;;;;;;2.60;1.40;;;;;;;18.16;51.61;100775.53;5013598;28;20177;-60
2022/04/03 08:52:04;;;;;;;3.00;1.40;;;;;;;18.16;51.85;100771.84;4981428;28;20784;-60
2022/04/03 08:54:29;;;;;;;2.03;1.23;;;;;;;18.18;51.63;100763.72;5030127;28;20587;-60
2022/04/03 08:56:55;;;;;;;3.97;1.50;;;;;;;18.19;51.37;100763.38;5031389;28;20415;-60
2022/04/03 08:59:21;;;;;;;2.17;1.20;;;;;;;18.18;51.65;100764.56;5031096;28;20179;-60
2022/04/03 09:01:47;;;;;;;2.10;1.43;;;;;;;18.15;51.55;100768.16;5029928;28;20605;-60
2022/04/03 09:04:12;;;;;;;2.07;1.40;;;;;;;18.22;51.46;100768.34;5030472;28;20546;-60
2022/04/03 09:06:53;;;;;;;2.73;1.50;;;;;;;18.19;51.34;100769.09;5031363;28;20627;-60
2022/04/03 09:09:22;;;;;;;2.90;1.57;;;;;;;18.19;51.50;100774.81;5031368;28;20303;-60
2022/04/03 09:12:05;;;;;;;2.60;1.33;;;;;;;18.22;51.41;100771.19;5031334;28;20919;-60
2022/04/03 09:14:31;;;;;;;2.00;1.20;;;;;;;18.21;51.28;100769.53;5031379;28;20490;-60
2022/04/03 09:16:56;;;;;;;2.20;1.40;;;;;;;18.22;51.09;100768.34;5031131;28;20514;-60
2022/04/03 09:19:32;;;;;;;2.10;1.37;;;;;;;18.19;51.32;100771.09;5031092;28;20573;-60
2022/04/03 09:21:58;;;;;;;2.33;1.40;;;;;;;18.22;51.36;100776.09;5029729;28;20176;-60
2022/04/03 09:24:23;;;;;;;1.70;1.00;;;;;;;18.21;51.26;100777.31;5030580;28;20838;-60
2022/04/03 09:27:00;;;;;;;2.40;1.50;;;;;;;18.16;52.01;100771.84;5031030;28;20191;-60
2022/04/03 09:29:25;;;;;;;2.10;1.30;;;;;;;18.16;51.63;100774.72;5031038;28;20180;-60
2022/04/03 09:32:00;;;;;;;2.17;1.40;;;;;;;18.18;51.73;100767.44;5031030;28;20435;-60
2022/04/03 09:34:26;;;;;;;2.37;1.40;;;;;;;18.19;51.35;100774.81;5030998;28;20160;-61
2022/04/03 09:36:59;;;;;;;1.90;1.30;;;;;;;18.14;51.50;100771.38;5030867;28;20429;-60
2022/04/03 09:39:29;;;;;;;2.30;1.37;;;;;;;18.16;51.43;100769.00;5031035;28;20423;-60
2022/04/03 09:42:00;;;;;;;2.17;1.40;;;;;;;18.19;51.46;100768.25;5029747;28;20918;-60
2022/04/03 09:44:30;;;;;;;2.20;1.43;;;;;;;18.16;51.45;100774.72;5030448;28;20455;-60
2022/04/03 09:47:13;;;;;;;2.53;1.40;;;;;;;18.16;51.51;100775.53;5030338;28;20834;-60
2022/04/03 09:49:44;;;;;;;2.13;1.37;;;;;;;18.14;51.91;100780.78;5030498;28;20450;-60
2022/04/03 09:52:09;;;;;;;2.20;1.50;;;;;;;18.13;51.99;100779.13;5031018;28;20422;-60
2022/04/03 09:54:38;;;;;;;1.97;1.37;;;;;;;18.17;51.35;100780.03;5012933;28;20757;-60
2022/04/03 09:57:19;;;;;;;1.97;1.17;;;;;;;18.14;51.78;100780.78;5031065;28;20180;-60
2022/04/03 09:59:53;;;;;;;2.77;1.30;;;;;;;18.17;51.40;100785.75;5030618;28;20439;-60
2022/04/03 10:02:20;;;;;;;2.67;1.60;;;;;;;18.15;51.52;100784.47;5026377;28;20473;-60
2022/04/03 10:04:45;;;;;;;2.40;1.40;;;;;;;18.19;51.36;100791.09;5030985;28;21080;-60
2022/04/03 10:07:14;;;;;;;2.20;1.23;;;;;;;18.17;51.57;100788.59;5014953;28;20467;-60
2022/04/03 10:09:45;;;;;;;2.13;1.10;;;;;;;18.17;51.43;100788.59;5030389;28;20188;-60
2022/04/03 10:12:10;;;;;;;2.50;1.20;;;;;;;18.23;51.16;100787.16;5034269;28;20461;-60
2022/04/03 10:14:36;;;;;;;1.97;1.37;;;;;;;18.20;51.11;100787.88;5034195;28;20418;-60
2022/04/03 10:17:01;;;;;;;2.43;1.20;;;;;;;18.20;51.05;100795.63;5034230;28;20636;-60
2022/04/03 10:19:27;;;;;;;2.20;1.33;;;;;;;18.18;51.33;100787.44;5034199;28;20647;-60
2022/04/03 10:21:54;;;;;;;2.20;1.27;;;;;;;18.21;51.17;100789.53;5034168;28;20196;-60
2022/04/03 10:24:24;;;;;;;2.03;1.30;;;;;;;18.21;51.13;100800.16;5000217;28;20201;-60
2022/04/03 10:27:14;;;;;;;2.40;1.30;;;;;;;18.20;51.12;100787.88;4998240;28;20791;-60
2022/04/03 10:29:40;;;;;;;2.30;1.60;;;;;;;18.20;51.25;100792.75;5014834;28;20431;-60
2022/04/03 10:32:06;;;;;;;1.90;1.30;;;;;;;18.22;51.05;100782.63;5015696;28;20907;-60
2022/04/03 10:34:44;;;;;;;2.37;1.30;;;;;;;18.21;51.09;100795.25;5031897;28;20230;-60
2022/04/03 10:37:23;;;;;;;2.20;1.53;;;;;;;18.26;51.23;100782.75;5033846;28;20434;-60
2022/04/03 10:39:52;;;;;;;2.00;1.30;;;;;;;18.21;51.06;100789.53;5033307;28;20457;-60
2022/04/03 10:42:25;;;;;;;1.80;1.13;;;;;;;18.19;50.98;100794.81;5033585;28;20427;-60
2022/04/03 10:45:09;;;;;;;2.20;1.47;;;;;;;18.19;51.12;100791.94;5033211;28;20458;-60
2022/04/03 10:47:34;;;;;;;2.60;1.37;;;;;;;18.21;51.61;100788.72;5013749;28;20471;-60
2022/04/03 10:50:01;;;;;;;2.67;1.83;;;;;;;18.21;51.03;100788.72;5013888;28;20486;-60
2022/04/03 10:52:35;;;;;;;2.37;1.30;;;;;;;18.20;51.19;100796.47;5013223;28;20185;-60
2022/04/03 10:55:02;;;;;;;2.27;1.33;;;;;;;18.20;51.20;100789.91;5013859;28;20416;-60
2022/04/03 10:57:40;;;;;;;2.23;1.50;;;;;;;18.18;51.30;100792.31;5013949;28;20420;-60
2022/04/03 11:00:26;;;;;;;1.70;1.20;;;;;;;18.16;51.51;100792.66;5015252;28;20431;-61
2022/04/03 11:02:57;;;;;;;2.30;1.37;;;;;;;18.18;51.50;100792.31;5033107;28;20461;-60
2022/04/03 11:05:28;;;;;;;1.90;1.30;;;;;;;18.16;51.92;100795.53;5033436;28;20490;-60
2022/04/03 11:08:00;;;;;;;2.57;1.70;;;;;;;18.16;50.87;100795.53;5033312;28;20426;-60
2022/04/03 11:10:54;;;;;;;2.00;1.20;;;;;;;18.16;51.34;100798.38;5033247;28;20694;-60
2022/04/03 11:13:34;;;;;;;2.57;1.57;;;;;;;18.18;51.46;100800.88;5033278;28;20412;-60
2022/04/03 11:16:09;;;;;;;2.20;1.30;;;;;;;18.18;51.25;100801.72;5033233;28;20561;-60
2022/04/03 11:18:35;;;;;;;2.40;1.57;;;;;;;18.15;51.34;100793.88;5013177;28;20473;-60
2022/04/03 11:21:25;;;;;;;2.33;1.10;;;;;;;18.17;51.29;100794.31;5030300;28;20419;-60
2022/04/03 11:24:06;;;;;;;2.00;1.17;;;;;;;18.14;51.53;100794.22;5032579;28;20597;-60